sensor_id;sensor_type;location;lat;lon;timestamp;P1;durP1;ratioP1;P2;durP2;ratioP2
26319;SDS011;14024;52.226;5.200;2023-06-04T00:01:58;4.53;;;2.08;;
26319;SDS011;14024;52.226;5.200;2023-06-04T00:04:27;5.22;;;2.28;;
26319;SDS011;14024;52.226;5.200;2023-06-04T00:06:55;4.72;;;2.20;;
26319;SDS011;14024;52.226;5.200;2023-06-04T00:09:21;4.80;;;2.20;;
26319;SDS011;14024;52.226;5.200;2023-06-04T00:11:47;7.75;;;3.00;;
26319;SDS011;14024;52.226;5.200;2023-06-04T00:14:13;7.15;;;2.28;;
26319;SDS011;14024;52.226;5.200;2023-06-04T00:16:41;2.72;;;2.08;;
26319;SDS011;14024;52.226;5.200;2023-06-04T00:19:08;3.33;;;2.20;;
26319;SDS011;14024;52.226;5.200;2023-06-04T00:21:34;6.20;;;2.33;;
26319;SDS011;14024;52.226;5.200;2023-06-04T00:24:00;3.05;;;2.10;;
26319;SDS011;14024;52.226;5.200;2023-06-04T00:26:27;5.28;;;2.90;;
26319;SDS011;14024;52.226;5.200;2023-06-04T00:28:56;4.30;;;1.83;;
26319;SDS011;14024;52.226;5.200;2023-06-04T00:31:22;9.15;;;2.30;;
26319;SDS011;14024;52.226;5.200;2023-06-04T00:33:48;3.10;;;2.15;;
26319;SDS011;14024;52.226;5.200;2023-06-04T00:36:14;4.28;;;2.15;;
26319;SDS011;14024;52.226;5.200;2023-06-04T00:38:41;2.80;;;1.67;;
26319;SDS011;14024;52.226;5.200;2023-06-04T00:41:07;5.00;;;2.30;;
26319;SDS011;14024;52.226;5.200;2023-06-04T00:43:33;6.88;;;2.47;;
26319;SDS011;14024;52.226;5.200;2023-06-04T00:46:00;4.45;;;1.95;;
26319;SDS011;14024;52.226;5.200;2023-06-04T00:48:28;5.45;;;2.25;;
26319;SDS011;14024;52.226;5.200;2023-06-04T00:50:55;5.90;;;2.05;;
26319;SDS011;14024;52.226;5.200;2023-06-04T00:53:21;4.72;;;2.08;;
26319;SDS011;14024;52.226;5.200;2023-06-04T00:55:48;2.92;;;2.00;;
26319;SDS011;14024;52.226;5.200;2023-06-04T00:58:15;10.45;;;2.47;;
26319;SDS011;14024;52.226;5.200;2023-06-04T01:00:42;4.10;;;2.13;;
26319;SDS011;14024;52.226;5.200;2023-06-04T01:03:10;5.53;;;2.53;;
26319;SDS011;14024;52.226;5.200;2023-06-04T01:08:24;4.18;;;2.30;;
26319;SDS011;14024;52.226;5.200;2023-06-04T01:10:52;5.63;;;2.40;;
26319;SDS011;14024;52.226;5.200;2023-06-04T01:13:18;3.03;;;1.85;;
26319;SDS011;14024;52.226;5.200;2023-06-04T01:15:44;6.35;;;2.05;;
26319;SDS011;14024;52.226;5.200;2023-06-04T01:18:10;3.78;;;1.92;;
26319;SDS011;14024;52.226;5.200;2023-06-04T01:20:43;9.40;;;2.20;;
26319;SDS011;14024;52.226;5.200;2023-06-04T01:25:40;3.80;;;2.08;;
26319;SDS011;14024;52.226;5.200;2023-06-04T01:28:09;7.50;;;1.80;;
26319;SDS011;14024;52.226;5.200;2023-06-04T01:30:36;6.80;;;2.10;;
26319;SDS011;14024;52.226;5.200;2023-06-04T01:33:08;4.20;;;2.00;;
26319;SDS011;14024;52.226;5.200;2023-06-04T01:35:35;8.20;;;2.20;;
26319;SDS011;14024;52.226;5.200;2023-06-04T01:38:01;2.97;;;1.88;;
26319;SDS011;14024;52.226;5.200;2023-06-04T01:40:27;3.10;;;2.08;;
26319;SDS011;14024;52.226;5.200;2023-06-04T01:42:53;5.60;;;2.10;;
26319;SDS011;14024;52.226;5.200;2023-06-04T01:45:20;3.75;;;1.83;;
26319;SDS011;14024;52.226;5.200;2023-06-04T01:47:46;7.93;;;2.08;;
26319;SDS011;14024;52.226;5.200;2023-06-04T01:50:12;4.55;;;2.30;;
26319;SDS011;14024;52.226;5.200;2023-06-04T01:52:39;3.28;;;2.17;;
26319;SDS011;14024;52.226;5.200;2023-06-04T01:55:06;4.30;;;2.15;;
26319;SDS011;14024;52.226;5.200;2023-06-04T01:57:32;6.57;;;2.10;;
26319;SDS011;14024;52.226;5.200;2023-06-04T01:59:58;2.72;;;1.90;;
26319;SDS011;14024;52.226;5.200;2023-06-04T02:02:24;4.53;;;2.10;;
26319;SDS011;14024;52.226;5.200;2023-06-04T02:04:50;9.93;;;2.50;;
26319;SDS011;14024;52.226;5.200;2023-06-04T02:07:18;4.63;;;1.85;;
26319;SDS011;14024;52.226;5.200;2023-06-04T02:09:48;3.83;;;2.13;;
26319;SDS011;14024;52.226;5.200;2023-06-04T02:12:14;4.03;;;2.35;;
26319;SDS011;14024;52.226;5.200;2023-06-04T02:14:41;6.88;;;2.60;;
26319;SDS011;14024;52.226;5.200;2023-06-04T02:17:07;3.03;;;2.10;;
26319;SDS011;14024;52.226;5.200;2023-06-04T02:19:40;3.38;;;1.95;;
26319;SDS011;14024;52.226;5.200;2023-06-04T02:22:13;7.05;;;3.30;;
26319;SDS011;14024;52.226;5.200;2023-06-04T02:24:39;4.90;;;2.05;;
26319;SDS011;14024;52.226;5.200;2023-06-04T02:27:09;6.07;;;2.00;;
26319;SDS011;14024;52.226;5.200;2023-06-04T02:29:35;3.67;;;1.95;;
26319;SDS011;14024;52.226;5.200;2023-06-04T02:32:02;5.10;;;1.92;;
26319;SDS011;14024;52.226;5.200;2023-06-04T02:34:29;3.60;;;2.00;;
26319;SDS011;14024;52.226;5.200;2023-06-04T02:36:55;6.07;;;1.80;;
26319;SDS011;14024;52.226;5.200;2023-06-04T02:39:23;4.30;;;2.00;;
26319;SDS011;14024;52.226;5.200;2023-06-04T02:41:49;3.88;;;2.10;;
26319;SDS011;14024;52.226;5.200;2023-06-04T02:44:15;4.85;;;2.00;;
26319;SDS011;14024;52.226;5.200;2023-06-04T02:46:41;5.40;;;2.10;;
26319;SDS011;14024;52.226;5.200;2023-06-04T02:49:08;5.60;;;1.88;;
26319;SDS011;14024;52.226;5.200;2023-06-04T02:51:35;2.95;;;2.03;;
26319;SDS011;14024;52.226;5.200;2023-06-04T02:54:01;3.97;;;1.92;;
26319;SDS011;14024;52.226;5.200;2023-06-04T02:56:26;4.70;;;2.40;;
26319;SDS011;14024;52.226;5.200;2023-06-04T02:58:53;5.10;;;2.40;;
26319;SDS011;14024;52.226;5.200;2023-06-04T03:01:21;3.50;;;1.80;;
26319;SDS011;14024;52.226;5.200;2023-06-04T03:03:47;5.35;;;2.05;;
26319;SDS011;14024;52.226;5.200;2023-06-04T03:06:14;4.60;;;2.40;;
26319;SDS011;14024;52.226;5.200;2023-06-04T03:08:40;4.05;;;2.20;;
26319;SDS011;14024;52.226;5.200;2023-06-04T03:11:06;5.70;;;2.22;;
26319;SDS011;14024;52.226;5.200;2023-06-04T03:13:32;3.20;;;1.90;;
26319;SDS011;14024;52.226;5.200;2023-06-04T03:15:58;4.07;;;2.30;;
26319;SDS011;14024;52.226;5.200;2023-06-04T03:18:27;8.00;;;2.50;;
26319;SDS011;14024;52.226;5.200;2023-06-04T03:20:54;5.05;;;2.08;;
26319;SDS011;14024;52.226;5.200;2023-06-04T03:23:20;3.38;;;2.30;;
26319;SDS011;14024;52.226;5.200;2023-06-04T03:25:46;7.15;;;2.50;;
26319;SDS011;14024;52.226;5.200;2023-06-04T03:28:12;2.75;;;1.77;;
26319;SDS011;14024;52.226;5.200;2023-06-04T03:30:40;4.28;;;2.10;;
26319;SDS011;14024;52.226;5.200;2023-06-04T03:33:07;3.15;;;1.90;;
26319;SDS011;14024;52.226;5.200;2023-06-04T03:35:33;9.32;;;2.75;;
26319;SDS011;14024;52.226;5.200;2023-06-04T03:37:59;4.60;;;2.15;;
26319;SDS011;14024;52.226;5.200;2023-06-04T03:40:25;4.95;;;1.98;;
26319;SDS011;14024;52.226;5.200;2023-06-04T03:42:51;5.18;;;2.20;;
26319;SDS011;14024;52.226;5.200;2023-06-04T03:45:17;8.23;;;2.65;;
26319;SDS011;14024;52.226;5.200;2023-06-04T03:47:43;5.90;;;2.33;;
26319;SDS011;14024;52.226;5.200;2023-06-04T03:50:09;5.65;;;2.50;;
26319;SDS011;14024;52.226;5.200;2023-06-04T03:52:35;7.50;;;2.58;;
26319;SDS011;14024;52.226;5.200;2023-06-04T03:55:01;5.53;;;2.50;;
26319;SDS011;14024;52.226;5.200;2023-06-04T03:57:28;4.68;;;2.60;;
26319;SDS011;14024;52.226;5.200;2023-06-04T03:59:54;10.30;;;2.70;;
26319;SDS011;14024;52.226;5.200;2023-06-04T04:02:20;7.05;;;2.58;;
26319;SDS011;14024;52.226;5.200;2023-06-04T04:04:46;6.47;;;2.65;;
26319;SDS011;14024;52.226;5.200;2023-06-04T04:07:13;7.88;;;2.72;;
26319;SDS011;14024;52.226;5.200;2023-06-04T04:09:40;5.97;;;2.80;;
26319;SDS011;14024;52.226;5.200;2023-06-04T04:12:06;6.40;;;2.75;;
26319;SDS011;14024;52.226;5.200;2023-06-04T04:14:32;5.65;;;2.85;;
26319;SDS011;14024;52.226;5.200;2023-06-04T04:16:58;9.07;;;3.10;;
26319;SDS011;14024;52.226;5.200;2023-06-04T04:19:24;4.88;;;2.75;;
26319;SDS011;14024;52.226;5.200;2023-06-04T04:21:53;8.23;;;2.70;;
26319;SDS011;14024;52.226;5.200;2023-06-04T04:24:28;7.20;;;3.40;;
26319;SDS011;14024;52.226;5.200;2023-06-04T04:26:54;5.55;;;3.28;;
26319;SDS011;14024;52.226;5.200;2023-06-04T04:29:20;5.45;;;2.90;;
26319;SDS011;14024;52.226;5.200;2023-06-04T04:31:53;6.93;;;3.60;;
26319;SDS011;14024;52.226;5.200;2023-06-04T04:34:22;7.63;;;3.13;;
26319;SDS011;14024;52.226;5.200;2023-06-04T04:36:48;8.10;;;3.35;;
26319;SDS011;14024;52.226;5.200;2023-06-04T04:39:22;5.28;;;3.20;;
26319;SDS011;14024;52.226;5.200;2023-06-04T04:41:49;13.15;;;4.03;;
26319;SDS011;14024;52.226;5.200;2023-06-04T04:44:15;13.90;;;3.17;;
26319;SDS011;14024;52.226;5.200;2023-06-04T04:46:41;9.45;;;3.63;;
26319;SDS011;14024;52.226;5.200;2023-06-04T04:49:07;8.82;;;3.60;;
26319;SDS011;14024;52.226;5.200;2023-06-04T04:51:33;10.98;;;4.07;;
26319;SDS011;14024;52.226;5.200;2023-06-04T04:53:59;10.27;;;3.58;;
26319;SDS011;14024;52.226;5.200;2023-06-04T04:56:25;8.23;;;3.75;;
26319;SDS011;14024;52.226;5.200;2023-06-04T04:58:51;11.05;;;3.90;;
26319;SDS011;14024;52.226;5.200;2023-06-04T05:01:17;6.40;;;3.88;;
26319;SDS011;14024;52.226;5.200;2023-06-04T05:03:43;6.28;;;3.85;;
26319;SDS011;14024;52.226;5.200;2023-06-04T05:06:09;10.52;;;4.05;;
26319;SDS011;14024;52.226;5.200;2023-06-04T05:08:36;13.23;;;4.40;;
26319;SDS011;14024;52.226;5.200;2023-06-04T05:11:02;10.68;;;4.03;;
26319;SDS011;14024;52.226;5.200;2023-06-04T05:13:28;8.20;;;3.78;;
26319;SDS011;14024;52.226;5.200;2023-06-04T05:15:54;9.48;;;4.07;;
26319;SDS011;14024;52.226;5.200;2023-06-04T05:18:20;7.22;;;3.55;;
26319;SDS011;14024;52.226;5.200;2023-06-04T05:20:46;12.80;;;4.00;;
26319;SDS011;14024;52.226;5.200;2023-06-04T05:23:13;10.10;;;4.15;;
26319;SDS011;14024;52.226;5.200;2023-06-04T05:25:39;9.77;;;3.85;;
26319;SDS011;14024;52.226;5.200;2023-06-04T05:28:06;9.98;;;4.28;;
26319;SDS011;14024;52.226;5.200;2023-06-04T05:30:32;12.70;;;3.80;;
26319;SDS011;14024;52.226;5.200;2023-06-04T05:32:58;12.68;;;4.28;;
26319;SDS011;14024;52.226;5.200;2023-06-04T05:35:25;10.43;;;3.70;;
26319;SDS011;14024;52.226;5.200;2023-06-04T05:37:51;14.50;;;3.72;;
26319;SDS011;14024;52.226;5.200;2023-06-04T05:40:20;13.65;;;3.85;;
26319;SDS011;14024;52.226;5.200;2023-06-04T05:42:47;12.65;;;4.35;;
26319;SDS011;14024;52.226;5.200;2023-06-04T05:45:13;17.05;;;4.18;;
26319;SDS011;14024;52.226;5.200;2023-06-04T05:47:39;11.90;;;3.40;;
26319;SDS011;14024;52.226;5.200;2023-06-04T05:50:05;13.38;;;4.45;;
26319;SDS011;14024;52.226;5.200;2023-06-04T05:52:32;9.75;;;3.47;;
26319;SDS011;14024;52.226;5.200;2023-06-04T05:54:59;10.73;;;3.40;;
26319;SDS011;14024;52.226;5.200;2023-06-04T05:57:29;11.00;;;3.65;;
26319;SDS011;14024;52.226;5.200;2023-06-04T05:59:55;9.50;;;4.35;;
26319;SDS011;14024;52.226;5.200;2023-06-04T06:02:21;9.73;;;3.88;;
26319;SDS011;14024;52.226;5.200;2023-06-04T06:04:47;13.55;;;4.18;;
26319;SDS011;14024;52.226;5.200;2023-06-04T06:07:14;11.38;;;3.90;;
26319;SDS011;14024;52.226;5.200;2023-06-04T06:09:40;7.80;;;3.90;;
26319;SDS011;14024;52.226;5.200;2023-06-04T06:12:06;10.60;;;3.72;;
26319;SDS011;14024;52.226;5.200;2023-06-04T06:14:33;9.90;;;3.72;;
26319;SDS011;14024;52.226;5.200;2023-06-04T06:16:59;9.38;;;3.72;;
26319;SDS011;14024;52.226;5.200;2023-06-04T06:19:28;11.70;;;3.90;;
26319;SDS011;14024;52.226;5.200;2023-06-04T06:21:54;13.55;;;3.58;;
26319;SDS011;14024;52.226;5.200;2023-06-04T06:24:20;10.02;;;3.83;;
26319;SDS011;14024;52.226;5.200;2023-06-04T06:26:46;8.55;;;3.72;;
26319;SDS011;14024;52.226;5.200;2023-06-04T06:29:12;7.05;;;3.17;;
26319;SDS011;14024;52.226;5.200;2023-06-04T06:31:38;10.55;;;3.72;;
26319;SDS011;14024;52.226;5.200;2023-06-04T06:34:04;14.85;;;4.25;;
26319;SDS011;14024;52.226;5.200;2023-06-04T06:36:30;7.20;;;3.08;;
26319;SDS011;14024;52.226;5.200;2023-06-04T06:38:57;9.00;;;3.00;;
26319;SDS011;14024;52.226;5.200;2023-06-04T06:41:23;12.13;;;3.42;;
26319;SDS011;14024;52.226;5.200;2023-06-04T06:43:51;9.05;;;2.90;;
26319;SDS011;14024;52.226;5.200;2023-06-04T06:46:17;6.60;;;2.58;;
26319;SDS011;14024;52.226;5.200;2023-06-04T06:48:43;9.40;;;3.30;;
26319;SDS011;14024;52.226;5.200;2023-06-04T06:51:10;6.78;;;2.92;;
26319;SDS011;14024;52.226;5.200;2023-06-04T06:53:36;7.15;;;2.47;;
26319;SDS011;14024;52.226;5.200;2023-06-04T06:56:02;4.68;;;2.53;;
26319;SDS011;14024;52.226;5.200;2023-06-04T06:58:28;8.27;;;2.65;;
26319;SDS011;14024;52.226;5.200;2023-06-04T07:00:54;4.47;;;2.50;;
26319;SDS011;14024;52.226;5.200;2023-06-04T07:03:21;6.10;;;2.67;;
26319;SDS011;14024;52.226;5.200;2023-06-04T07:05:47;5.50;;;2.90;;
26319;SDS011;14024;52.226;5.200;2023-06-04T07:08:13;7.30;;;2.67;;
26319;SDS011;14024;52.226;5.200;2023-06-04T07:10:39;6.10;;;2.60;;
26319;SDS011;14024;52.226;5.200;2023-06-04T07:13:05;5.90;;;2.92;;
26319;SDS011;14024;52.226;5.200;2023-06-04T07:15:31;5.82;;;2.75;;
26319;SDS011;14024;52.226;5.200;2023-06-04T07:17:57;7.03;;;2.72;;
26319;SDS011;14024;52.226;5.200;2023-06-04T07:20:23;8.57;;;2.97;;
26319;SDS011;14024;52.226;5.200;2023-06-04T07:22:49;6.88;;;2.75;;
26319;SDS011;14024;52.226;5.200;2023-06-04T07:25:15;7.88;;;2.97;;
26319;SDS011;14024;52.226;5.200;2023-06-04T07:27:41;4.80;;;2.55;;
26319;SDS011;14024;52.226;5.200;2023-06-04T07:30:08;5.93;;;2.70;;
26319;SDS011;14024;52.226;5.200;2023-06-04T07:32:34;6.55;;;2.78;;
26319;SDS011;14024;52.226;5.200;2023-06-04T07:35:01;4.25;;;2.50;;
26319;SDS011;14024;52.226;5.200;2023-06-04T07:37:27;8.65;;;3.05;;
26319;SDS011;14024;52.226;5.200;2023-06-04T07:39:53;6.00;;;2.60;;
26319;SDS011;14024;52.226;5.200;2023-06-04T07:42:19;6.32;;;2.80;;
26319;SDS011;14024;52.226;5.200;2023-06-04T07:44:45;10.05;;;3.03;;
26319;SDS011;14024;52.226;5.200;2023-06-04T07:47:11;7.63;;;2.90;;
26319;SDS011;14024;52.226;5.200;2023-06-04T07:49:37;5.15;;;2.80;;
26319;SDS011;14024;52.226;5.200;2023-06-04T07:52:03;5.32;;;2.42;;
26319;SDS011;14024;52.226;5.200;2023-06-04T07:54:29;9.18;;;2.92;;
26319;SDS011;14024;52.226;5.200;2023-06-04T07:56:56;6.53;;;3.05;;
26319;SDS011;14024;52.226;5.200;2023-06-04T07:59:23;4.97;;;2.70;;
26319;SDS011;14024;52.226;5.200;2023-06-04T08:01:49;4.75;;;2.30;;
26319;SDS011;14024;52.226;5.200;2023-06-04T08:04:16;18.15;;;3.78;;
26319;SDS011;14024;52.226;5.200;2023-06-04T08:06:42;8.02;;;3.05;;
26319;SDS011;14024;52.226;5.200;2023-06-04T08:09:09;14.70;;;3.30;;
26319;SDS011;14024;52.226;5.200;2023-06-04T08:11:36;15.43;;;3.70;;
26319;SDS011;14024;52.226;5.200;2023-06-04T08:14:02;24.42;;;4.13;;
26319;SDS011;14024;52.226;5.200;2023-06-04T08:16:28;14.55;;;3.63;;
26319;SDS011;14024;52.226;5.200;2023-06-04T08:18:54;7.45;;;2.28;;
26319;SDS011;14024;52.226;5.200;2023-06-04T08:21:26;10.40;;;3.08;;
26319;SDS011;14024;52.226;5.200;2023-06-04T08:23:53;8.33;;;2.50;;
26319;SDS011;14024;52.226;5.200;2023-06-04T08:26:19;18.83;;;3.00;;
26319;SDS011;14024;52.226;5.200;2023-06-04T08:28:48;18.27;;;3.30;;
26319;SDS011;14024;52.226;5.200;2023-06-04T08:31:14;10.95;;;3.28;;
26319;SDS011;14024;52.226;5.200;2023-06-04T08:33:41;12.95;;;3.58;;
26319;SDS011;14024;52.226;5.200;2023-06-04T08:36:07;11.40;;;2.83;;
26319;SDS011;14024;52.226;5.200;2023-06-04T08:38:33;31.65;;;4.88;;
26319;SDS011;14024;52.226;5.200;2023-06-04T08:41:06;7.35;;;2.70;;
26319;SDS011;14024;52.226;5.200;2023-06-04T08:43:35;12.82;;;2.80;;
26319;SDS011;14024;52.226;5.200;2023-06-04T08:46:03;7.03;;;2.50;;
26319;SDS011;14024;52.226;5.200;2023-06-04T08:48:33;12.00;;;2.83;;
26319;SDS011;14024;52.226;5.200;2023-06-04T08:51:01;5.07;;;2.83;;
26319;SDS011;14024;52.226;5.200;2023-06-04T08:53:27;4.75;;;2.00;;
26319;SDS011;14024;52.226;5.200;2023-06-04T08:55:53;17.20;;;3.72;;
26319;SDS011;14024;52.226;5.200;2023-06-04T08:58:20;20.05;;;3.47;;
26319;SDS011;14024;52.226;5.200;2023-06-04T09:00:46;23.42;;;3.38;;
26319;SDS011;14024;52.226;5.200;2023-06-04T09:03:12;17.10;;;2.88;;
26319;SDS011;14024;52.226;5.200;2023-06-04T09:05:42;8.25;;;2.25;;
26319;SDS011;14024;52.226;5.200;2023-06-04T09:08:12;22.73;;;3.30;;
26319;SDS011;14024;52.226;5.200;2023-06-04T09:10:39;16.70;;;3.78;;
26319;SDS011;14024;52.226;5.200;2023-06-04T09:13:06;10.32;;;2.88;;
26319;SDS011;14024;52.226;5.200;2023-06-04T09:15:34;5.28;;;2.20;;
26319;SDS011;14024;52.226;5.200;2023-06-04T09:18:00;20.23;;;3.92;;
26319;SDS011;14024;52.226;5.200;2023-06-04T09:20:26;7.57;;;2.40;;
26319;SDS011;14024;52.226;5.200;2023-06-04T09:22:53;16.17;;;3.10;;
26319;SDS011;14024;52.226;5.200;2023-06-04T09:25:20;15.60;;;3.08;;
26319;SDS011;14024;52.226;5.200;2023-06-04T09:27:46;15.20;;;3.17;;
26319;SDS011;14024;52.226;5.200;2023-06-04T09:30:14;5.30;;;2.40;;
26319;SDS011;14024;52.226;5.200;2023-06-04T09:32:41;5.55;;;2.20;;
26319;SDS011;14024;52.226;5.200;2023-06-04T09:35:14;8.85;;;2.67;;
26319;SDS011;14024;52.226;5.200;2023-06-04T09:37:41;8.85;;;2.13;;
26319;SDS011;14024;52.226;5.200;2023-06-04T09:40:08;5.53;;;2.10;;
26319;SDS011;14024;52.226;5.200;2023-06-04T09:45:31;4.97;;;2.22;;
26319;SDS011;14024;52.226;5.200;2023-06-04T09:48:00;7.60;;;2.47;;
26319;SDS011;14024;52.226;5.200;2023-06-04T09:50:27;9.20;;;2.38;;
26319;SDS011;14024;52.226;5.200;2023-06-04T09:52:54;13.50;;;2.80;;
26319;SDS011;14024;52.226;5.200;2023-06-04T09:55:20;8.18;;;2.20;;
26319;SDS011;14024;52.226;5.200;2023-06-04T09:57:47;14.07;;;2.80;;
26319;SDS011;14024;52.226;5.200;2023-06-04T10:00:16;12.70;;;3.13;;
26319;SDS011;14024;52.226;5.200;2023-06-04T10:02:42;8.52;;;2.10;;
26319;SDS011;14024;52.226;5.200;2023-06-04T10:05:08;6.43;;;2.33;;
26319;SDS011;14024;52.226;5.200;2023-06-04T10:07:39;8.68;;;2.10;;
26319;SDS011;14024;52.226;5.200;2023-06-04T10:10:05;12.88;;;2.55;;
26319;SDS011;14024;52.226;5.200;2023-06-04T10:12:32;4.90;;;2.28;;
26319;SDS011;14024;52.226;5.200;2023-06-04T10:15:09;14.07;;;3.17;;
26319;SDS011;14024;52.226;5.200;2023-06-04T10:17:36;14.88;;;2.88;;
26319;SDS011;14024;52.226;5.200;2023-06-04T10:20:02;13.05;;;2.60;;
26319;SDS011;14024;52.226;5.200;2023-06-04T10:22:33;3.40;;;1.88;;
26319;SDS011;14024;52.226;5.200;2023-06-04T10:25:00;4.10;;;2.30;;
26319;SDS011;14024;52.226;5.200;2023-06-04T10:27:28;8.20;;;2.25;;
26319;SDS011;14024;52.226;5.200;2023-06-04T10:29:56;6.20;;;2.10;;
26319;SDS011;14024;52.226;5.200;2023-06-04T10:32:23;3.58;;;2.17;;
26319;SDS011;14024;52.226;5.200;2023-06-04T10:34:52;8.57;;;2.35;;
26319;SDS011;14024;52.226;5.200;2023-06-04T10:37:18;5.50;;;2.10;;
26319;SDS011;14024;52.226;5.200;2023-06-04T10:39:50;6.18;;;2.10;;
26319;SDS011;14024;52.226;5.200;2023-06-04T10:42:16;4.55;;;2.42;;
26319;SDS011;14024;52.226;5.200;2023-06-04T10:44:47;5.82;;;2.45;;
26319;SDS011;14024;52.226;5.200;2023-06-04T10:47:23;7.78;;;2.95;;
26319;SDS011;14024;52.226;5.200;2023-06-04T10:49:53;3.38;;;1.98;;
26319;SDS011;14024;52.226;5.200;2023-06-04T10:52:21;5.07;;;2.40;;
26319;SDS011;14024;52.226;5.200;2023-06-04T10:54:47;7.68;;;2.45;;
26319;SDS011;14024;52.226;5.200;2023-06-04T10:57:14;6.20;;;2.22;;
26319;SDS011;14024;52.226;5.200;2023-06-04T10:59:40;19.10;;;2.85;;
26319;SDS011;14024;52.226;5.200;2023-06-04T11:02:07;5.72;;;2.63;;
26319;SDS011;14024;52.226;5.200;2023-06-04T11:04:33;8.05;;;2.67;;
26319;SDS011;14024;52.226;5.200;2023-06-04T11:07:06;5.53;;;2.50;;
26319;SDS011;14024;52.226;5.200;2023-06-04T11:09:56;10.43;;;3.05;;
26319;SDS011;14024;52.226;5.200;2023-06-04T11:12:24;10.30;;;3.10;;
26319;SDS011;14024;52.226;5.200;2023-06-04T11:14:57;16.63;;;3.47;;
26319;SDS011;14024;52.226;5.200;2023-06-04T11:17:24;10.15;;;3.05;;
26319;SDS011;14024;52.226;5.200;2023-06-04T11:19:50;9.57;;;3.05;;
26319;SDS011;14024;52.226;5.200;2023-06-04T11:22:20;13.38;;;3.50;;
26319;SDS011;14024;52.226;5.200;2023-06-04T11:24:46;11.35;;;3.40;;
26319;SDS011;14024;52.226;5.200;2023-06-04T11:27:13;11.27;;;3.17;;
26319;SDS011;14024;52.226;5.200;2023-06-04T11:29:39;7.50;;;3.60;;
26319;SDS011;14024;52.226;5.200;2023-06-04T11:32:05;5.05;;;2.70;;
26319;SDS011;14024;52.226;5.200;2023-06-04T11:34:31;11.05;;;3.83;;
26319;SDS011;14024;52.226;5.200;2023-06-04T11:37:07;9.27;;;3.85;;
26319;SDS011;14024;52.226;5.200;2023-06-04T11:39:34;8.57;;;3.13;;
26319;SDS011;14024;52.226;5.200;2023-06-04T11:42:06;11.80;;;3.28;;
26319;SDS011;14024;52.226;5.200;2023-06-04T11:44:32;7.68;;;2.75;;
26319;SDS011;14024;52.226;5.200;2023-06-04T11:46:58;11.77;;;2.92;;
26319;SDS011;14024;52.226;5.200;2023-06-04T11:49:25;7.78;;;3.05;;
26319;SDS011;14024;52.226;5.200;2023-06-04T11:51:51;11.45;;;3.33;;
26319;SDS011;14024;52.226;5.200;2023-06-04T11:54:18;10.90;;;2.97;;
26319;SDS011;14024;52.226;5.200;2023-06-04T11:56:44;5.72;;;2.80;;
26319;SDS011;14024;52.226;5.200;2023-06-04T11:59:14;6.20;;;2.75;;
26319;SDS011;14024;52.226;5.200;2023-06-04T12:01:41;15.63;;;2.95;;
26319;SDS011;14024;52.226;5.200;2023-06-04T12:04:17;6.00;;;2.58;;
26319;SDS011;14024;52.226;5.200;2023-06-04T12:06:50;5.78;;;2.90;;
26319;SDS011;14024;52.226;5.200;2023-06-04T12:09:20;9.40;;;3.05;;
26319;SDS011;14024;52.226;5.200;2023-06-04T12:11:47;15.13;;;3.65;;
26319;SDS011;14024;52.226;5.200;2023-06-04T12:14:15;8.32;;;2.67;;
26319;SDS011;14024;52.226;5.200;2023-06-04T12:16:43;9.85;;;2.47;;
26319;SDS011;14024;52.226;5.200;2023-06-04T12:19:10;7.97;;;3.25;;
26319;SDS011;14024;52.226;5.200;2023-06-04T12:21:36;6.88;;;2.55;;
26319;SDS011;14024;52.226;5.200;2023-06-04T12:24:09;6.35;;;2.53;;
26319;SDS011;14024;52.226;5.200;2023-06-04T12:26:36;5.72;;;2.83;;
26319;SDS011;14024;52.226;5.200;2023-06-04T12:29:14;8.82;;;3.35;;
26319;SDS011;14024;52.226;5.200;2023-06-04T12:31:41;5.75;;;2.55;;
26319;SDS011;14024;52.226;5.200;2023-06-04T12:34:07;7.72;;;2.58;;
26319;SDS011;14024;52.226;5.200;2023-06-04T12:36:34;5.25;;;2.25;;
26319;SDS011;14024;52.226;5.200;2023-06-04T12:39:01;8.05;;;2.50;;
26319;SDS011;14024;52.226;5.200;2023-06-04T12:41:27;5.40;;;2.42;;
26319;SDS011;14024;52.226;5.200;2023-06-04T12:43:54;6.43;;;2.58;;
26319;SDS011;14024;52.226;5.200;2023-06-04T12:46:20;6.60;;;2.45;;
26319;SDS011;14024;52.226;5.200;2023-06-04T12:48:47;7.68;;;2.30;;
26319;SDS011;14024;52.226;5.200;2023-06-04T12:51:13;11.32;;;2.88;;
26319;SDS011;14024;52.226;5.200;2023-06-04T12:53:40;7.38;;;2.30;;
26319;SDS011;14024;52.226;5.200;2023-06-04T12:56:06;9.35;;;2.83;;
26319;SDS011;14024;52.226;5.200;2023-06-04T12:58:32;4.53;;;2.25;;
26319;SDS011;14024;52.226;5.200;2023-06-04T13:00:58;9.13;;;2.80;;
26319;SDS011;14024;52.226;5.200;2023-06-04T13:03:25;8.27;;;2.40;;
26319;SDS011;14024;52.226;5.200;2023-06-04T13:05:51;11.90;;;2.53;;
26319;SDS011;14024;52.226;5.200;2023-06-04T13:08:18;5.40;;;2.40;;
26319;SDS011;14024;52.226;5.200;2023-06-04T13:10:45;5.15;;;2.10;;
26319;SDS011;14024;52.226;5.200;2023-06-04T13:13:12;8.85;;;2.83;;
26319;SDS011;14024;52.226;5.200;2023-06-04T13:15:40;6.43;;;2.30;;
26319;SDS011;14024;52.226;5.200;2023-06-04T13:18:06;4.25;;;2.30;;
26319;SDS011;14024;52.226;5.200;2023-06-04T13:20:32;5.50;;;2.40;;
26319;SDS011;14024;52.226;5.200;2023-06-04T13:22:58;7.82;;;2.60;;
26319;SDS011;14024;52.226;5.200;2023-06-04T13:25:24;10.70;;;2.45;;
26319;SDS011;14024;52.226;5.200;2023-06-04T13:27:50;8.00;;;2.30;;
26319;SDS011;14024;52.226;5.200;2023-06-04T13:30:16;6.15;;;2.08;;
26319;SDS011;14024;52.226;5.200;2023-06-04T13:32:42;5.60;;;2.47;;
26319;SDS011;14024;52.226;5.200;2023-06-04T13:35:08;5.03;;;2.05;;
26319;SDS011;14024;52.226;5.200;2023-06-04T13:37:34;8.98;;;2.50;;
26319;SDS011;14024;52.226;5.200;2023-06-04T13:40:00;6.07;;;2.35;;
26319;SDS011;14024;52.226;5.200;2023-06-04T13:42:26;11.00;;;2.50;;
26319;SDS011;14024;52.226;5.200;2023-06-04T13:44:52;7.45;;;2.40;;
26319;SDS011;14024;52.226;5.200;2023-06-04T13:47:18;4.93;;;2.42;;
26319;SDS011;14024;52.226;5.200;2023-06-04T13:49:47;7.43;;;2.55;;
26319;SDS011;14024;52.226;5.200;2023-06-04T13:52:13;5.75;;;2.17;;
26319;SDS011;14024;52.226;5.200;2023-06-04T13:54:39;6.80;;;2.08;;
26319;SDS011;14024;52.226;5.200;2023-06-04T13:57:05;6.85;;;2.67;;
26319;SDS011;14024;52.226;5.200;2023-06-04T13:59:32;4.63;;;2.00;;
26319;SDS011;14024;52.226;5.200;2023-06-04T14:01:59;5.18;;;2.20;;
26319;SDS011;14024;52.226;5.200;2023-06-04T14:04:25;7.28;;;2.38;;
26319;SDS011;14024;52.226;5.200;2023-06-04T14:06:51;6.18;;;2.13;;
26319;SDS011;14024;52.226;5.200;2023-06-04T14:09:17;4.90;;;2.20;;
26319;SDS011;14024;52.226;5.200;2023-06-04T14:11:44;3.42;;;1.80;;
26319;SDS011;14024;52.226;5.200;2023-06-04T14:14:15;6.03;;;2.33;;
26319;SDS011;14024;52.226;5.200;2023-06-04T14:16:42;5.38;;;2.03;;
26319;SDS011;14024;52.226;5.200;2023-06-04T14:19:08;10.38;;;2.60;;
26319;SDS011;14024;52.226;5.200;2023-06-04T14:21:34;7.03;;;2.28;;
26319;SDS011;14024;52.226;5.200;2023-06-04T14:24:00;7.38;;;2.63;;
26319;SDS011;14024;52.226;5.200;2023-06-04T14:26:26;7.78;;;3.25;;
26319;SDS011;14024;52.226;5.200;2023-06-04T14:28:53;5.80;;;2.50;;
26319;SDS011;14024;52.226;5.200;2023-06-04T14:31:19;6.43;;;2.97;;
26319;SDS011;14024;52.226;5.200;2023-06-04T14:33:45;5.72;;;2.85;;
26319;SDS011;14024;52.226;5.200;2023-06-04T14:36:11;7.60;;;2.65;;
26319;SDS011;14024;52.226;5.200;2023-06-04T14:38:37;9.38;;;2.83;;
26319;SDS011;14024;52.226;5.200;2023-06-04T14:41:03;8.23;;;2.70;;
26319;SDS011;14024;52.226;5.200;2023-06-04T14:43:29;8.85;;;2.88;;
26319;SDS011;14024;52.226;5.200;2023-06-04T14:45:55;5.72;;;2.53;;
26319;SDS011;14024;52.226;5.200;2023-06-04T14:48:21;9.68;;;2.35;;
26319;SDS011;14024;52.226;5.200;2023-06-04T14:50:47;9.70;;;2.70;;
26319;SDS011;14024;52.226;5.200;2023-06-04T14:53:14;6.32;;;2.60;;